sensor_id;sensor_type;location;lat;lon;timestamp;P1;durP1;ratioP1;P2;durP2;ratioP2
51459;SDS011;37534;39.772;2.718;2022-09-29T00:01:37;9.82;;;5.05;;
51459;SDS011;37534;39.772;2.718;2022-09-29T00:04:03;8.35;;;2.83;;
51459;SDS011;37534;39.772;2.718;2022-09-29T00:06:29;10.75;;;4.68;;
51459;SDS011;37534;39.772;2.718;2022-09-29T00:08:54;11.93;;;4.68;;
51459;SDS011;37534;39.772;2.718;2022-09-29T00:11:22;7.90;;;4.00;;
51459;SDS011;37534;39.772;2.718;2022-09-29T00:13:47;13.85;;;7.03;;
51459;SDS011;37534;39.772;2.718;2022-09-29T00:16:13;7.68;;;5.20;;
51459;SDS011;37534;39.772;2.718;2022-09-29T00:18:38;10.15;;;5.93;;
51459;SDS011;37534;39.772;2.718;2022-09-29T00:21:15;11.52;;;6.85;;
51459;SDS011;37534;39.772;2.718;2022-09-29T00:23:43;12.35;;;3.97;;
51459;SDS011;37534;39.772;2.718;2022-09-29T00:26:17;4.85;;;3.10;;
51459;SDS011;37534;39.772;2.718;2022-09-29T00:28:52;17.20;;;6.40;;
51459;SDS011;37534;39.772;2.718;2022-09-29T00:31:29;12.07;;;7.28;;
51459;SDS011;37534;39.772;2.718;2022-09-29T00:33:57;12.85;;;7.20;;
51459;SDS011;37534;39.772;2.718;2022-09-29T00:36:23;21.75;;;7.18;;
51459;SDS011;37534;39.772;2.718;2022-09-29T00:38:49;27.45;;;11.07;;
51459;SDS011;37534;39.772;2.718;2022-09-29T00:41:20;30.85;;;11.25;;
51459;SDS011;37534;39.772;2.718;2022-09-29T00:43:49;24.20;;;10.40;;
51459;SDS011;37534;39.772;2.718;2022-09-29T00:49:19;71.60;;;27.45;;
51459;SDS011;37534;39.772;2.718;2022-09-29T00:52:05;20.35;;;7.95;;
51459;SDS011;37534;39.772;2.718;2022-09-29T00:54:37;10.68;;;4.28;;
51459;SDS011;37534;39.772;2.718;2022-09-29T00:57:08;9.35;;;4.38;;
51459;SDS011;37534;39.772;2.718;2022-09-29T00:59:47;8.93;;;4.43;;
51459;SDS011;37534;39.772;2.718;2022-09-29T01:02:18;8.35;;;4.43;;
51459;SDS011;37534;39.772;2.718;2022-09-29T01:04:46;14.55;;;5.93;;
51459;SDS011;37534;39.772;2.718;2022-09-29T01:07:15;26.10;;;14.77;;
51459;SDS011;37534;39.772;2.718;2022-09-29T01:09:41;19.58;;;11.65;;
51459;SDS011;37534;39.772;2.718;2022-09-29T01:12:07;19.05;;;11.95;;
51459;SDS011;37534;39.772;2.718;2022-09-29T01:14:34;18.98;;;12.95;;
51459;SDS011;37534;39.772;2.718;2022-09-29T01:17:02;17.02;;;12.10;;
51459;SDS011;37534;39.772;2.718;2022-09-29T01:25:18;27.02;;;17.63;;
51459;SDS011;37534;39.772;2.718;2022-09-29T01:27:58;21.10;;;14.50;;
51459;SDS011;37534;39.772;2.718;2022-09-29T01:39:23;20.90;;;12.17;;
51459;SDS011;37534;39.772;2.718;2022-09-29T01:42:07;11.95;;;10.10;;
51459;SDS011;37534;39.772;2.718;2022-09-29T01:44:41;14.70;;;10.18;;
51459;SDS011;37534;39.772;2.718;2022-09-29T01:47:15;20.75;;;11.02;;
51459;SDS011;37534;39.772;2.718;2022-09-29T01:49:55;16.95;;;8.45;;
51459;SDS011;37534;39.772;2.718;2022-09-29T01:52:26;23.85;;;11.95;;
51459;SDS011;37534;39.772;2.718;2022-09-29T01:54:56;7.30;;;5.13;;
51459;SDS011;37534;39.772;2.718;2022-09-29T01:57:30;8.93;;;5.82;;
51459;SDS011;37534;39.772;2.718;2022-09-29T02:00:13;10.10;;;5.60;;
51459;SDS011;37534;39.772;2.718;2022-09-29T02:03:00;8.73;;;5.13;;
51459;SDS011;37534;39.772;2.718;2022-09-29T02:05:44;9.60;;;5.35;;
51459;SDS011;37534;39.772;2.718;2022-09-29T02:16:15;22.40;;;10.40;;
51459;SDS011;37534;39.772;2.718;2022-09-29T02:18:53;5.55;;;4.05;;
51459;SDS011;37534;39.772;2.718;2022-09-29T02:21:22;24.73;;;11.65;;
51459;SDS011;37534;39.772;2.718;2022-09-29T02:23:48;11.05;;;5.47;;
51459;SDS011;37534;39.772;2.718;2022-09-29T02:26:16;8.68;;;3.08;;
51459;SDS011;37534;39.772;2.718;2022-09-29T02:28:43;5.20;;;2.50;;
51459;SDS011;37534;39.772;2.718;2022-09-29T02:31:09;5.15;;;2.78;;
51459;SDS011;37534;39.772;2.718;2022-09-29T02:33:35;6.68;;;3.03;;
51459;SDS011;37534;39.772;2.718;2022-09-29T02:36:05;11.48;;;3.83;;
51459;SDS011;37534;39.772;2.718;2022-09-29T02:41:59;16.25;;;8.95;;
51459;SDS011;37534;39.772;2.718;2022-09-29T02:58:09;5.47;;;3.47;;
51459;SDS011;37534;39.772;2.718;2022-09-29T03:00:31;5.38;;;2.58;;
51459;SDS011;37534;39.772;2.718;2022-09-29T03:02:57;5.18;;;2.08;;
51459;SDS011;37534;39.772;2.718;2022-09-29T03:05:23;8.48;;;3.33;;
51459;SDS011;37534;39.772;2.718;2022-09-29T03:07:49;10.02;;;5.90;;
51459;SDS011;37534;39.772;2.718;2022-09-29T03:10:15;7.10;;;4.10;;
51459;SDS011;37534;39.772;2.718;2022-09-29T03:12:42;5.05;;;3.05;;
51459;SDS011;37534;39.772;2.718;2022-09-29T03:15:07;15.57;;;6.65;;
51459;SDS011;37534;39.772;2.718;2022-09-29T03:17:35;34.88;;;19.10;;
51459;SDS011;37534;39.772;2.718;2022-09-29T03:20:00;34.97;;;19.30;;
51459;SDS011;37534;39.772;2.718;2022-09-29T03:22:26;58.05;;;26.23;;
51459;SDS011;37534;39.772;2.718;2022-09-29T03:24:52;42.72;;;23.48;;
51459;SDS011;37534;39.772;2.718;2022-09-29T03:27:17;16.23;;;10.32;;
51459;SDS011;37534;39.772;2.718;2022-09-29T03:29:43;25.45;;;11.15;;
51459;SDS011;37534;39.772;2.718;2022-09-29T03:32:08;31.42;;;16.63;;
51459;SDS011;37534;39.772;2.718;2022-09-29T03:34:34;24.73;;;16.67;;
51459;SDS011;37534;39.772;2.718;2022-09-29T03:37:00;19.48;;;9.73;;
51459;SDS011;37534;39.772;2.718;2022-09-29T03:39:26;14.00;;;7.07;;
51459;SDS011;37534;39.772;2.718;2022-09-29T03:41:52;14.00;;;7.32;;
51459;SDS011;37534;39.772;2.718;2022-09-29T03:44:18;10.45;;;5.60;;
51459;SDS011;37534;39.772;2.718;2022-09-29T03:46:44;17.75;;;8.63;;
51459;SDS011;37534;39.772;2.718;2022-09-29T03:49:11;15.90;;;8.02;;
51459;SDS011;37534;39.772;2.718;2022-09-29T03:51:39;14.15;;;7.95;;
51459;SDS011;37534;39.772;2.718;2022-09-29T03:54:04;34.03;;;18.67;;
51459;SDS011;37534;39.772;2.718;2022-09-29T03:56:31;36.50;;;18.27;;
51459;SDS011;37534;39.772;2.718;2022-09-29T03:58:56;26.52;;;12.20;;
51459;SDS011;37534;39.772;2.718;2022-09-29T04:01:22;41.35;;;25.08;;
51459;SDS011;37534;39.772;2.718;2022-09-29T04:03:47;15.50;;;9.93;;
51459;SDS011;37534;39.772;2.718;2022-09-29T04:06:13;25.50;;;12.07;;
51459;SDS011;37534;39.772;2.718;2022-09-29T04:08:38;17.58;;;10.45;;
51459;SDS011;37534;39.772;2.718;2022-09-29T04:11:04;23.45;;;10.02;;
51459;SDS011;37534;39.772;2.718;2022-09-29T04:13:30;14.93;;;7.72;;
51459;SDS011;37534;39.772;2.718;2022-09-29T04:16:00;13.65;;;5.85;;
51459;SDS011;37534;39.772;2.718;2022-09-29T04:18:29;18.15;;;4.75;;
51459;SDS011;37534;39.772;2.718;2022-09-29T04:20:55;10.65;;;3.53;;
51459;SDS011;37534;39.772;2.718;2022-09-29T04:23:25;6.30;;;4.25;;
51459;SDS011;37534;39.772;2.718;2022-09-29T04:25:51;15.75;;;5.78;;
51459;SDS011;37534;39.772;2.718;2022-09-29T04:28:17;27.25;;;6.57;;
51459;SDS011;37534;39.772;2.718;2022-09-29T04:30:42;10.82;;;6.60;;
51459;SDS011;37534;39.772;2.718;2022-09-29T04:33:08;8.65;;;4.97;;
51459;SDS011;37534;39.772;2.718;2022-09-29T04:35:34;7.95;;;5.13;;
51459;SDS011;37534;39.772;2.718;2022-09-29T04:37:59;11.25;;;5.93;;
51459;SDS011;37534;39.772;2.718;2022-09-29T04:40:25;11.20;;;5.95;;
51459;SDS011;37534;39.772;2.718;2022-09-29T04:42:51;11.68;;;5.40;;
51459;SDS011;37534;39.772;2.718;2022-09-29T04:45:16;12.77;;;5.47;;
51459;SDS011;37534;39.772;2.718;2022-09-29T04:47:42;13.18;;;7.60;;
51459;SDS011;37534;39.772;2.718;2022-09-29T04:50:07;56.50;;;28.15;;
51459;SDS011;37534;39.772;2.718;2022-09-29T04:52:34;41.17;;;21.70;;
51459;SDS011;37534;39.772;2.718;2022-09-29T04:55:00;11.77;;;7.57;;
51459;SDS011;37534;39.772;2.718;2022-09-29T04:57:25;23.83;;;11.73;;
51459;SDS011;37534;39.772;2.718;2022-09-29T04:59:51;5.78;;;3.67;;
51459;SDS011;37534;39.772;2.718;2022-09-29T05:02:17;18.45;;;6.63;;
51459;SDS011;37534;39.772;2.718;2022-09-29T05:04:43;15.88;;;5.20;;
51459;SDS011;37534;39.772;2.718;2022-09-29T05:07:11;15.20;;;5.65;;
51459;SDS011;37534;39.772;2.718;2022-09-29T05:09:37;10.02;;;2.92;;
51459;SDS011;37534;39.772;2.718;2022-09-29T05:12:02;10.40;;;4.93;;
51459;SDS011;37534;39.772;2.718;2022-09-29T05:14:28;27.02;;;11.48;;
51459;SDS011;37534;39.772;2.718;2022-09-29T05:16:54;10.40;;;6.55;;
51459;SDS011;37534;39.772;2.718;2022-09-29T05:19:20;4.60;;;2.97;;
51459;SDS011;37534;39.772;2.718;2022-09-29T05:21:46;17.27;;;5.75;;
51459;SDS011;37534;39.772;2.718;2022-09-29T05:24:11;11.60;;;5.03;;
51459;SDS011;37534;39.772;2.718;2022-09-29T05:26:37;9.52;;;5.78;;
51459;SDS011;37534;39.772;2.718;2022-09-29T05:29:02;10.48;;;5.20;;
51459;SDS011;37534;39.772;2.718;2022-09-29T05:31:28;8.85;;;4.15;;
51459;SDS011;37534;39.772;2.718;2022-09-29T05:33:54;9.75;;;3.67;;
51459;SDS011;37534;39.772;2.718;2022-09-29T05:36:20;6.13;;;3.90;;
51459;SDS011;37534;39.772;2.718;2022-09-29T05:38:46;12.82;;;6.88;;
51459;SDS011;37534;39.772;2.718;2022-09-29T05:41:12;55.35;;;30.95;;
51459;SDS011;37534;39.772;2.718;2022-09-29T05:43:40;377.08;;;262.33;;
51459;SDS011;37534;39.772;2.718;2022-09-29T05:46:06;806.97;;;621.17;;
51459;SDS011;37534;39.772;2.718;2022-09-29T05:48:34;386.60;;;262.50;;
51459;SDS011;37534;39.772;2.718;2022-09-29T05:51:06;232.95;;;136.57;;
51459;SDS011;37534;39.772;2.718;2022-09-29T05:53:35;94.97;;;58.25;;
51459;SDS011;37534;39.772;2.718;2022-09-29T05:56:03;57.97;;;35.55;;
51459;SDS011;37534;39.772;2.718;2022-09-29T05:58:30;10.30;;;6.25;;
51459;SDS011;37534;39.772;2.718;2022-09-29T06:00:56;50.85;;;27.73;;
51459;SDS011;37534;39.772;2.718;2022-09-29T06:03:22;41.03;;;19.38;;
51459;SDS011;37534;39.772;2.718;2022-09-29T06:05:47;31.73;;;18.60;;
51459;SDS011;37534;39.772;2.718;2022-09-29T06:08:13;40.03;;;18.55;;
51459;SDS011;37534;39.772;2.718;2022-09-29T06:10:38;11.00;;;6.00;;
51459;SDS011;37534;39.772;2.718;2022-09-29T06:13:04;24.92;;;13.27;;
51459;SDS011;37534;39.772;2.718;2022-09-29T06:15:30;16.95;;;11.23;;
51459;SDS011;37534;39.772;2.718;2022-09-29T06:17:56;13.60;;;8.30;;
51459;SDS011;37534;39.772;2.718;2022-09-29T06:20:22;17.75;;;10.82;;
51459;SDS011;37534;39.772;2.718;2022-09-29T06:22:48;99.05;;;56.70;;
51459;SDS011;37534;39.772;2.718;2022-09-29T06:25:15;18.92;;;12.68;;
51459;SDS011;37534;39.772;2.718;2022-09-29T06:27:41;6.22;;;4.43;;
51459;SDS011;37534;39.772;2.718;2022-09-29T06:30:07;8.35;;;3.47;;
51459;SDS011;37534;39.772;2.718;2022-09-29T06:32:33;5.95;;;3.63;;
51459;SDS011;37534;39.772;2.718;2022-09-29T06:35:00;7.35;;;3.35;;
51459;SDS011;37534;39.772;2.718;2022-09-29T06:37:44;6.72;;;4.32;;
51459;SDS011;37534;39.772;2.718;2022-09-29T06:40:10;17.52;;;8.35;;
51459;SDS011;37534;39.772;2.718;2022-09-29T06:42:37;9.45;;;3.63;;
51459;SDS011;37534;39.772;2.718;2022-09-29T06:45:03;13.52;;;5.20;;
51459;SDS011;37534;39.772;2.718;2022-09-29T06:47:29;23.88;;;7.97;;
51459;SDS011;37534;39.772;2.718;2022-09-29T06:49:55;10.95;;;6.93;;
51459;SDS011;37534;39.772;2.718;2022-09-29T06:52:22;114.95;;;74.05;;
51459;SDS011;37534;39.772;2.718;2022-09-29T06:54:47;95.55;;;51.53;;
51459;SDS011;37534;39.772;2.718;2022-09-29T06:57:13;60.92;;;33.13;;
51459;SDS011;37534;39.772;2.718;2022-09-29T06:59:38;79.07;;;43.40;;
51459;SDS011;37534;39.772;2.718;2022-09-29T07:02:04;125.68;;;71.38;;
51459;SDS011;37534;39.772;2.718;2022-09-29T07:04:30;96.47;;;58.08;;
51459;SDS011;37534;39.772;2.718;2022-09-29T07:06:55;67.88;;;44.08;;
51459;SDS011;37534;39.772;2.718;2022-09-29T07:09:21;85.72;;;57.22;;
51459;SDS011;37534;39.772;2.718;2022-09-29T07:11:50;61.72;;;42.97;;
51459;SDS011;37534;39.772;2.718;2022-09-29T07:14:17;37.78;;;26.65;;
51459;SDS011;37534;39.772;2.718;2022-09-29T07:16:44;29.55;;;19.42;;
51459;SDS011;37534;39.772;2.718;2022-09-29T07:19:12;9.60;;;6.07;;
51459;SDS011;37534;39.772;2.718;2022-09-29T07:21:38;15.98;;;4.78;;
51459;SDS011;37534;39.772;2.718;2022-09-29T07:24:03;8.23;;;4.03;;
51459;SDS011;37534;39.772;2.718;2022-09-29T07:26:29;9.48;;;3.92;;
51459;SDS011;37534;39.772;2.718;2022-09-29T07:28:55;6.10;;;3.42;;
51459;SDS011;37534;39.772;2.718;2022-09-29T07:31:21;5.38;;;2.35;;
51459;SDS011;37534;39.772;2.718;2022-09-29T07:33:48;3.35;;;2.28;;
51459;SDS011;37534;39.772;2.718;2022-09-29T07:36:15;9.18;;;1.30;;
51459;SDS011;37534;39.772;2.718;2022-09-29T07:38:46;5.65;;;1.77;;
51459;SDS011;37534;39.772;2.718;2022-09-29T07:41:13;9.02;;;2.05;;
51459;SDS011;37534;39.772;2.718;2022-09-29T07:43:40;6.35;;;2.63;;
51459;SDS011;37534;39.772;2.718;2022-09-29T07:46:06;7.30;;;3.28;;
51459;SDS011;37534;39.772;2.718;2022-09-29T07:48:32;2.38;;;1.67;;
51459;SDS011;37534;39.772;2.718;2022-09-29T07:51:03;6.35;;;2.17;;
51459;SDS011;37534;39.772;2.718;2022-09-29T07:53:34;1.67;;;1.45;;
51459;SDS011;37534;39.772;2.718;2022-09-29T07:56:04;5.13;;;2.50;;
51459;SDS011;37534;39.772;2.718;2022-09-29T07:58:32;3.25;;;1.60;;
51459;SDS011;37534;39.772;2.718;2022-09-29T08:00:58;1.83;;;1.38;;
51459;SDS011;37534;39.772;2.718;2022-09-29T08:03:25;10.43;;;2.05;;
51459;SDS011;37534;39.772;2.718;2022-09-29T08:05:52;3.15;;;2.28;;
51459;SDS011;37534;39.772;2.718;2022-09-29T08:08:17;3.28;;;2.00;;
51459;SDS011;37534;39.772;2.718;2022-09-29T08:10:43;5.13;;;2.38;;
51459;SDS011;37534;39.772;2.718;2022-09-29T08:13:09;6.05;;;3.13;;
51459;SDS011;37534;39.772;2.718;2022-09-29T08:15:34;10.05;;;3.42;;
51459;SDS011;37534;39.772;2.718;2022-09-29T08:18:00;5.45;;;2.85;;
51459;SDS011;37534;39.772;2.718;2022-09-29T08:20:25;6.13;;;2.15;;
51459;SDS011;37534;39.772;2.718;2022-09-29T08:22:51;9.25;;;2.10;;
51459;SDS011;37534;39.772;2.718;2022-09-29T08:25:19;4.40;;;3.08;;
51459;SDS011;37534;39.772;2.718;2022-09-29T08:27:44;9.30;;;3.25;;
51459;SDS011;37534;39.772;2.718;2022-09-29T08:30:10;4.32;;;2.08;;
51459;SDS011;37534;39.772;2.718;2022-09-29T08:32:36;4.97;;;1.58;;
51459;SDS011;37534;39.772;2.718;2022-09-29T08:35:03;6.63;;;1.98;;
51459;SDS011;37534;39.772;2.718;2022-09-29T08:37:29;2.40;;;1.52;;
51459;SDS011;37534;39.772;2.718;2022-09-29T08:39:55;3.67;;;2.53;;
51459;SDS011;37534;39.772;2.718;2022-09-29T08:45:01;2.13;;;1.00;;
51459;SDS011;37534;39.772;2.718;2022-09-29T08:47:36;4.32;;;1.48;;
51459;SDS011;37534;39.772;2.718;2022-09-29T08:50:16;5.68;;;1.60;;
51459;SDS011;37534;39.772;2.718;2022-09-29T08:52:45;4.07;;;1.25;;
51459;SDS011;37534;39.772;2.718;2022-09-29T08:57:42;2.70;;;1.10;;
51459;SDS011;37534;39.772;2.718;2022-09-29T09:00:14;2.67;;;1.30;;
51459;SDS011;37534;39.772;2.718;2022-09-29T09:10:28;2.58;;;1.38;;
51459;SDS011;37534;39.772;2.718;2022-09-29T09:13:02;15.65;;;1.52;;
51459;SDS011;37534;39.772;2.718;2022-09-29T09:24:21;3.47;;;0.82;;
51459;SDS011;37534;39.772;2.718;2022-09-29T09:26:50;2.97;;;0.80;;
51459;SDS011;37534;39.772;2.718;2022-09-29T09:29:30;6.45;;;1.15;;
51459;SDS011;37534;39.772;2.718;2022-09-29T09:32:03;4.20;;;1.20;;
51459;SDS011;37534;39.772;2.718;2022-09-29T09:34:46;3.75;;;1.15;;
51459;SDS011;37534;39.772;2.718;2022-09-29T09:37:27;0.95;;;0.60;;
51459;SDS011;37534;39.772;2.718;2022-09-29T09:40:02;1.23;;;0.57;;
51459;SDS011;37534;39.772;2.718;2022-09-29T09:42:39;1.33;;;1.13;;
51459;SDS011;37534;39.772;2.718;2022-09-29T09:48:02;2.38;;;1.73;;
51459;SDS011;37534;39.772;2.718;2022-09-29T09:50:54;1.33;;;0.80;;
51459;SDS011;37534;39.772;2.718;2022-09-29T09:53:53;1.25;;;0.63;;
51459;SDS011;37534;39.772;2.718;2022-09-29T09:59:28;3.00;;;1.00;;
51459;SDS011;37534;39.772;2.718;2022-09-29T10:02:17;0.60;;;0.40;;
51459;SDS011;37534;39.772;2.718;2022-09-29T10:04:46;0.55;;;0.55;;
51459;SDS011;37534;39.772;2.718;2022-09-29T10:07:14;3.95;;;0.57;;
51459;SDS011;37534;39.772;2.718;2022-09-29T10:09:41;7.32;;;0.82;;
51459;SDS011;37534;39.772;2.718;2022-09-29T10:12:08;4.18;;;0.98;;
51459;SDS011;37534;39.772;2.718;2022-09-29T10:14:42;1.80;;;1.05;;
51459;SDS011;37534;39.772;2.718;2022-09-29T10:17:15;1.75;;;0.65;;
51459;SDS011;37534;39.772;2.718;2022-09-29T10:19:51;7.97;;;1.10;;
51459;SDS011;37534;39.772;2.718;2022-09-29T10:22:17;0.82;;;0.75;;
51459;SDS011;37534;39.772;2.718;2022-09-29T10:24:43;3.55;;;1.02;;
51459;SDS011;37534;39.772;2.718;2022-09-29T10:27:09;2.47;;;1.10;;
51459;SDS011;37534;39.772;2.718;2022-09-29T10:37:40;1.15;;;0.60;;
51459;SDS011;37534;39.772;2.718;2022-09-29T10:42:39;0.70;;;0.45;;
51459;SDS011;37534;39.772;2.718;2022-09-29T10:47:47;2.88;;;1.00;;
51459;SDS011;37534;39.772;2.718;2022-09-29T10:50:20;2.22;;;1.05;;
51459;SDS011;37534;39.772;2.718;2022-09-29T10:52:49;0.80;;;0.55;;
51459;SDS011;37534;39.772;2.718;2022-09-29T10:57:50;0.73;;;0.50;;
51459;SDS011;37534;39.772;2.718;2022-09-29T11:02:50;2.88;;;0.93;;
51459;SDS011;37534;39.772;2.718;2022-09-29T11:05:21;0.73;;;0.50;;
51459;SDS011;37534;39.772;2.718;2022-09-29T11:07:48;0.80;;;0.40;;
51459;SDS011;37534;39.772;2.718;2022-09-29T11:10:26;2.47;;;0.90;;
51459;SDS011;37534;39.772;2.718;2022-09-29T11:12:52;0.95;;;0.73;;
51459;SDS011;37534;39.772;2.718;2022-09-29T11:15:25;1.77;;;0.50;;
51459;SDS011;37534;39.772;2.718;2022-09-29T11:17:53;2.78;;;0.60;;
51459;SDS011;37534;39.772;2.718;2022-09-29T11:20:18;1.90;;;0.73;;
51459;SDS011;37534;39.772;2.718;2022-09-29T11:30:51;1.83;;;0.85;;
51459;SDS011;37534;39.772;2.718;2022-09-29T11:36:20;1.30;;;0.70;;
51459;SDS011;37534;39.772;2.718;2022-09-29T11:39:00;1.00;;;0.70;;
51459;SDS011;37534;39.772;2.718;2022-09-29T11:59:56;1.25;;;0.65;;
51459;SDS011;37534;39.772;2.718;2022-09-29T12:05:39;2.15;;;0.90;;
51459;SDS011;37534;39.772;2.718;2022-09-29T12:16:53;1.02;;;0.60;;
51459;SDS011;37534;39.772;2.718;2022-09-29T12:19:25;2.85;;;1.50;;
51459;SDS011;37534;39.772;2.718;2022-09-29T12:21:54;4.05;;;1.42;;
51459;SDS011;37534;39.772;2.718;2022-09-29T12:24:34;3.55;;;1.27;;
51459;SDS011;37534;39.772;2.718;2022-09-29T12:27:04;1.13;;;0.63;;
51459;SDS011;37534;39.772;2.718;2022-09-29T12:29:49;4.75;;;0.85;;
51459;SDS011;37534;39.772;2.718;2022-09-29T12:32:18;4.63;;;0.88;;
51459;SDS011;37534;39.772;2.718;2022-09-29T12:34:50;3.33;;;0.90;;
51459;SDS011;37534;39.772;2.718;2022-09-29T12:37:25;3.53;;;0.68;;
51459;SDS011;37534;39.772;2.718;2022-09-29T12:40:27;0.55;;;0.30;;
51459;SDS011;37534;39.772;2.718;2022-09-29T12:43:00;2.05;;;0.60;;
51459;SDS011;37534;39.772;2.718;2022-09-29T12:50:56;1.33;;;0.68;;
51459;SDS011;37534;39.772;2.718;2022-09-29T12:53:37;1.25;;;0.93;;
51459;SDS011;37534;39.772;2.718;2022-09-29T12:58:49;1.90;;;0.75;;
51459;SDS011;37534;39.772;2.718;2022-09-29T13:01:19;6.28;;;0.93;;
51459;SDS011;37534;39.772;2.718;2022-09-29T13:06:45;2.00;;;1.10;;
51459;SDS011;37534;39.772;2.718;2022-09-29T13:12:07;0.45;;;0.45;;
51459;SDS011;37534;39.772;2.718;2022-09-29T13:14:58;5.15;;;0.90;;
51459;SDS011;37534;39.772;2.718;2022-09-29T13:18:10;0.90;;;0.45;;
51459;SDS011;37534;39.772;2.718;2022-09-29T13:26:07;1.50;;;0.70;;
51459;SDS011;37534;39.772;2.718;2022-09-29T13:28:48;1.13;;;0.63;;
51459;SDS011;37534;39.772;2.718;2022-09-29T13:31:22;1.55;;;0.40;;
51459;SDS011;37534;39.772;2.718;2022-09-29T13:33:53;1.40;;;0.45;;
51459;SDS011;37534;39.772;2.718;2022-09-29T13:36:30;1.63;;;0.70;;
51459;SDS011;37534;39.772;2.718;2022-09-29T13:39:00;2.22;;;0.70;;
51459;SDS011;37534;39.772;2.718;2022-09-29T13:54:26;0.80;;;0.50;;
51459;SDS011;37534;39.772;2.718;2022-09-29T13:59:28;8.52;;;0.98;;
51459;SDS011;37534;39.772;2.718;2022-09-29T14:01:54;1.70;;;0.63;;
51459;SDS011;37534;39.772;2.718;2022-09-29T14:04:34;1.10;;;0.52;;
51459;SDS011;37534;39.772;2.718;2022-09-29T14:07:05;1.02;;;0.70;;
51459;SDS011;37534;39.772;2.718;2022-09-29T14:09:35;1.00;;;0.70;;
51459;SDS011;37534;39.772;2.718;2022-09-29T14:12:27;1.25;;;1.00;;
51459;SDS011;37534;39.772;2.718;2022-09-29T14:14:55;1.52;;;0.63;;
51459;SDS011;37534;39.772;2.718;2022-09-29T14:17:31;1.15;;;0.57;;
51459;SDS011;37534;39.772;2.718;2022-09-29T14:38:24;4.20;;;1.05;;
51459;SDS011;37534;39.772;2.718;2022-09-29T14:40:57;2.83;;;0.93;;
51459;SDS011;37534;39.772;2.718;2022-09-29T14:43:47;2.08;;;0.85;;
51459;SDS011;37534;39.772;2.718;2022-09-29T15:00:20;3.75;;;1.55;;
51459;SDS011;37534;39.772;2.718;2022-09-29T15:02:52;1.85;;;0.85;;
51459;SDS011;37534;39.772;2.718;2022-09-29T15:05:25;2.85;;;0.63;;
51459;SDS011;37534;39.772;2.718;2022-09-29T15:07:51;2.25;;;1.00;;
51459;SDS011;37534;39.772;2.718;2022-09-29T15:10:22;2.60;;;0.88;;
51459;SDS011;37534;39.772;2.718;2022-09-29T15:13:13;1.73;;;0.52;;
51459;SDS011;37534;39.772;2.718;2022-09-29T15:15:40;11.10;;;1.00;;
51459;SDS011;37534;39.772;2.718;2022-09-29T15:21:14;2.77;;;1.13;;
51459;SDS011;37534;39.772;2.718;2022-09-29T15:23:49;3.13;;;0.82;;
51459;SDS011;37534;39.772;2.718;2022-09-29T15:26:39;4.07;;;0.82;;
51459;SDS011;37534;39.772;2.718;2022-09-29T15:29:06;0.80;;;0.50;;
51459;SDS011;37534;39.772;2.718;2022-09-29T15:31:33;1.77;;;0.70;;
51459;SDS011;37534;39.772;2.718;2022-09-29T15:34:00;1.17;;;0.63;;
51459;SDS011;37534;39.772;2.718;2022-09-29T15:36:36;2.47;;;0.70;;
51459;SDS011;37534;39.772;2.718;2022-09-29T15:39:12;3.35;;;0.70;;
51459;SDS011;37534;39.772;2.718;2022-09-29T15:42:01;2.05;;;0.60;;
51459;SDS011;37534;39.772;2.718;2022-09-29T15:44:36;7.15;;;1.13;;
51459;SDS011;37534;39.772;2.718;2022-09-29T15:47:01;1.55;;;0.77;;
51459;SDS011;37534;39.772;2.718;2022-09-29T15:49:27;1.48;;;0.80;;
51459;SDS011;37534;39.772;2.718;2022-09-29T15:51:58;1.75;;;0.73;;
51459;SDS011;37534;39.772;2.718;2022-09-29T15:54:30;6.05;;;0.75;;
51459;SDS011;37534;39.772;2.718;2022-09-29T15:56:58;0.90;;;0.40;;
51459;SDS011;37534;39.772;2.718;2022-09-29T15:59:44;3.53;;;1.10;;
51459;SDS011;37534;39.772;2.718;2022-09-29T16:04:55;3.80;;;0.90;;
51459;SDS011;37534;39.772;2.718;2022-09-29T16:07:25;1.90;;;1.25;;
51459;SDS011;37534;39.772;2.718;2022-09-29T16:09:58;1.75;;;1.00;;
51459;SDS011;37534;39.772;2.718;2022-09-29T16:12:28;4.97;;;0.95;;
51459;SDS011;37534;39.772;2.718;2022-09-29T16:14:59;4.18;;;0.80;;
51459;SDS011;37534;39.772;2.718;2022-09-29T16:17:25;0.85;;;0.57;;
51459;SDS011;37534;39.772;2.718;2022-09-29T16:19:50;6.22;;;0.88;;
51459;SDS011;37534;39.772;2.718;2022-09-29T16:22:19;1.48;;;0.93;;
51459;SDS011;37534;39.772;2.718;2022-09-29T16:27:50;1.35;;;0.95;;
51459;SDS011;37534;39.772;2.718;2022-09-29T16:30:21;1.83;;;0.80;;
51459;SDS011;37534;39.772;2.718;2022-09-29T16:33:02;2.72;;;1.10;;
51459;SDS011;37534;39.772;2.718;2022-09-29T16:38:17;0.60;;;0.60;;
51459;SDS011;37534;39.772;2.718;2022-09-29T16:40:43;2.58;;;0.75;;
51459;SDS011;37534;39.772;2.718;2022-09-29T16:43:20;2.42;;;0.70;;
51459;SDS011;37534;39.772;2.718;2022-09-29T16:45:51;2.35;;;0.63;;
51459;SDS011;37534;39.772;2.718;2022-09-29T16:48:19;9.90;;;1.48;;
51459;SDS011;37534;39.772;2.718;2022-09-29T16:50:46;1.10;;;0.52;;
51459;SDS011;37534;39.772;2.718;2022-09-29T16:55:57;1.58;;;0.82;;
51459;SDS011;37534;39.772;2.718;2022-09-29T16:58:42;1.88;;;1.05;;
51459;SDS011;37534;39.772;2.718;2022-09-29T17:01:08;7.13;;;0.85;;
51459;SDS011;37534;39.772;2.718;2022-09-29T17:03:34;0.98;;;0.77;;
51459;SDS011;37534;39.772;2.718;2022-09-29T17:06:01;1.58;;;0.68;;
51459;SDS011;37534;39.772;2.718;2022-09-29T17:08:29;0.65;;;0.65;;
51459;SDS011;37534;39.772;2.718;2022-09-29T17:10:55;3.38;;;0.63;;
51459;SDS011;37534;39.772;2.718;2022-09-29T17:13:22;3.28;;;0.95;;
51459;SDS011;37534;39.772;2.718;2022-09-29T17:15:49;1.63;;;1.33;;
51459;SDS011;37534;39.772;2.718;2022-09-29T17:18:16;9.15;;;1.67;;
51459;SDS011;37534;39.772;2.718;2022-09-29T17:20:43;3.08;;;1.67;;
51459;SDS011;37534;39.772;2.718;2022-09-29T17:23:09;1.52;;;1.17;;
51459;SDS011;37534;39.772;2.718;2022-09-29T17:25:36;4.18;;;2.03;;
51459;SDS011;37534;39.772;2.718;2022-09-29T17:28:08;5.65;;;1.65;;
51459;SDS011;37534;39.772;2.718;2022-09-29T17:30:48;2.03;;;1.58;;
51459;SDS011;37534;39.772;2.718;2022-09-29T17:33:15;2.13;;;1.45;;
51459;SDS011;37534;39.772;2.718;2022-09-29T17:35:43;3.63;;;2.30;;
51459;SDS011;37534;39.772;2.718;2022-09-29T17:38:11;2.15;;;1.27;;
51459;SDS011;37534;39.772;2.718;2022-09-29T17:43:27;1.50;;;1.30;;
51459;SDS011;37534;39.772;2.718;2022-09-29T17:45:55;2.55;;;0.93;;
51459;SDS011;37534;39.772;2.718;2022-09-29T17:48:23;8.38;;;1.50;;
51459;SDS011;37534;39.772;2.718;2022-09-29T17:50:50;3.97;;;1.40;;
51459;SDS011;37534;39.772;2.718;2022-09-29T17:53:18;5.25;;;1.92;;
51459;SDS011;37534;39.772;2.718;2022-09-29T17:55:48;4.47;;;2.53;;
51459;SDS011;37534;39.772;2.718;2022-09-29T17:58:18;3.17;;;2.65;;
51459;SDS011;37534;39.772;2.718;2022-09-29T18:00:48;5.60;;;3.20;;
51459;SDS011;37534;39.772;2.718;2022-09-29T18:03:17;8.02;;;3.47;;
51459;SDS011;37534;39.772;2.718;2022-09-29T18:05:44;2.13;;;1.55;;
51459;SDS011;37534;39.772;2.718;2022-09-29T18:08:13;3.60;;;2.03;;
51459;SDS011;37534;39.772;2.718;2022-09-29T18:13:07;2.30;;;1.50;;
51459;SDS011;37534;39.772;2.718;2022-09-29T18:15:34;6.03;;;2.85;;
51459;SDS011;37534;39.772;2.718;2022-09-29T18:18:01;6.10;;;1.45;;
51459;SDS011;37534;39.772;2.718;2022-09-29T18:20:29;2.45;;;1.20;;
51459;SDS011;37534;39.772;2.718;2022-09-29T18:22:56;2.50;;;1.27;;
51459;SDS011;37534;39.772;2.718;2022-09-29T18:25:29;1.05;;;0.55;;
51459;SDS011;37534;39.772;2.718;2022-09-29T18:27:56;1.77;;;0.90;;
51459;SDS011;37534;39.772;2.718;2022-09-29T18:30:24;2.05;;;0.93;;
51459;SDS011;37534;39.772;2.718;2022-09-29T18:32:55;1.73;;;1.13;;